Time;durP1;ratioP1;P1;durP2;ratioP2;P2;SDS_P1;SDS_P2;PMS_P1;PMS_P2;Temp;Humidity;BMP_temperature;BMP_pressure;BME280_temperature;BME280_humidity;BME280_pressure;Samples;Min_cycle;Max_cycle;Signal;HPM_P1;HPM_P2
2021/02/07 00:01:46;;;;;;;0.70;0.70;;;;;;;5.14;91.89;95336.72;299397;215;63009;-56
2021/02/07 00:06:47;;;;;;;0.60;0.60;;;;;;;5.13;91.45;95323.59;299397;197;63005;-56
2021/02/07 00:11:48;;;;;;;0.60;0.60;;;;;;;5.09;91.54;95272.28;299397;226;63009;-54
2021/02/07 00:16:49;;;;;;;0.60;0.60;;;;;;;4.99;91.48;95216.03;299396;232;63013;-55
2021/02/07 00:21:50;;;;;;;0.60;0.60;;;;;;;5.11;91.40;95243.22;299396;238;63009;-55
2021/02/07 00:26:51;;;;;;;0.60;0.60;;;;;;;5.01;91.01;95262.22;299396;202;63004;-63
2021/02/07 00:31:52;;;;;;;0.70;0.70;;;;;;;4.87;91.59;95240.69;299396;329;63009;-55
2021/02/07 00:36:54;;;;;;;0.60;0.60;;;;;;;4.98;91.52;95260.13;299396;210;63005;-54
2021/02/07 00:41:55;;;;;;;0.65;0.65;;;;;;;4.80;91.99;95244.87;299396;253;63009;-63
2021/02/07 00:46:56;;;;;;;0.80;0.80;;;;;;;4.95;91.35;95201.59;299396;221;63005;-56
2021/02/07 00:51:58;;;;;;;0.70;0.70;;;;;;;4.92;91.61;95175.31;299396;217;63009;-55
2021/02/07 00:57:02;;;;;;;0.70;0.70;;;;;;;4.90;92.08;95175.59;299397;218;63004;-57
2021/02/07 01:02:03;;;;;;;0.60;0.60;;;;;;;4.91;92.34;95193.31;299397;223;63009;-56
2021/02/07 01:07:05;;;;;;;0.70;0.70;;;;;;;4.88;91.23;95155.50;299395;197;63005;-63
2021/02/07 01:12:06;;;;;;;0.60;0.60;;;;;;;4.81;91.50;95179.31;299395;259;63009;-56
2021/02/07 01:17:07;;;;;;;0.70;0.70;;;;;;;4.79;91.44;95190.34;299395;211;63005;-55
2021/02/07 01:22:09;;;;;;;0.60;0.60;;;;;;;4.69;91.17;95196.69;299395;238;63009;-56
2021/02/07 01:27:10;;;;;;;0.70;0.70;;;;;;;4.69;91.57;95174.41;299395;205;63004;-55
2021/02/07 01:32:11;;;;;;;0.70;0.70;;;;;;;4.74;91.51;95154.72;299394;260;63009;-55
2021/02/07 01:37:12;;;;;;;0.70;0.70;;;;;;;4.68;91.51;95154.78;299395;232;63005;-55
2021/02/07 01:42:13;;;;;;;0.70;0.70;;;;;;;4.76;91.35;95149.84;299395;219;63018;-56
2021/02/07 01:47:23;;;;;;;0.70;0.70;;;;;;;4.70;90.90;95131.13;299395;219;63004;-59
2021/02/07 01:52:26;;;;;;;0.70;0.70;;;;;;;4.70;90.91;95106.94;299395;197;63009;-57
2021/02/07 01:57:27;;;;;;;0.70;0.70;;;;;;;4.78;90.50;95091.22;299395;295;63000;-55
2021/02/07 02:02:28;;;;;;;0.60;0.60;;;;;;;4.72;90.38;95096.69;299395;212;63009;-56
2021/02/07 02:07:40;;;;;;;0.60;0.60;;;;;;;4.75;90.24;95098.00;299395;250;63000;-54
2021/02/07 02:13:04;;;;;;;0.60;0.60;;;;;;;4.65;90.45;95101.66;299395;239;63008;-54
2021/02/07 02:18:19;;;;;;;0.60;0.60;;;;;;;4.58;91.14;95071.72;299395;230;63004;-56
2021/02/07 02:23:25;;;;;;;0.60;0.60;;;;;;;4.55;91.14;95080.38;299417;213;63009;-55
2021/02/07 02:28:40;;;;;;;0.60;0.60;;;;;;;4.58;91.42;95087.03;299395;203;63005;-54
2021/02/07 02:33:45;;;;;;;0.60;0.60;;;;;;;4.58;91.42;95078.97;299417;322;63009;-56
2021/02/07 02:38:48;;;;;;;0.60;0.60;;;;;;;4.55;90.99;95058.09;299395;214;63009;-63
2021/02/07 02:44:02;;;;;;;0.60;0.60;;;;;;;4.50;91.54;95064.38;299395;218;63009;-55
2021/02/07 02:49:07;;;;;;;0.60;0.60;;;;;;;4.43;91.40;95047.84;299377;383;125004;-55
2021/02/07 02:54:11;;;;;;;0.70;0.70;;;;;;;4.31;91.57;95034.91;299395;215;63009;-55
2021/02/07 02:59:14;;;;;;;0.60;0.60;;;;;;;4.21;91.56;95034.31;299417;197;63005;-54
2021/02/07 03:04:16;;;;;;;0.70;0.70;;;;;;;4.13;91.92;95021.59;299395;293;63008;-57
2021/02/07 03:09:18;;;;;;;0.70;0.70;;;;;;;4.04;91.90;95000.81;299395;219;63004;-63
2021/02/07 03:14:18;;;;;;;0.70;0.70;;;;;;;4.06;91.62;94983.63;299395;325;63009;-56
2021/02/07 03:19:26;;;;;;;0.70;0.70;;;;;;;4.05;91.58;94974.78;299395;218;63004;-65
2021/02/07 03:24:33;;;;;;;0.60;0.60;;;;;;;3.99;91.54;94971.37;299395;204;63009;-63
2021/02/07 03:29:35;;;;;;;0.70;0.70;;;;;;;3.90;91.64;94965.13;299395;213;63005;-55
2021/02/07 03:34:41;;;;;;;0.70;0.70;;;;;;;3.83;91.24;94953.97;299395;220;63008;-54
2021/02/07 03:39:44;;;;;;;0.60;0.60;;;;;;;3.85;91.48;94945.63;299395;229;63004;-56
2021/02/07 03:44:46;;;;;;;0.60;0.60;;;;;;;3.92;90.51;94960.25;299395;196;63009;-56
2021/02/07 03:49:48;;;;;;;0.70;0.70;;;;;;;3.88;90.82;94955.78;299395;239;63004;-55
2021/02/07 03:54:49;;;;;;;0.60;0.60;;;;;;;3.76;91.20;94961.63;299395;228;63009;-56
2021/02/07 03:59:54;;;;;;;0.60;0.60;;;;;;;3.58;91.19;94943.72;299395;239;63005;-56
2021/02/07 04:04:55;;;;;;;0.60;0.60;;;;;;;3.55;91.39;94952.34;299395;264;63009;-64
2021/02/07 04:09:57;;;;;;;0.70;0.70;;;;;;;3.55;91.27;94952.34;299395;229;63004;-55
2021/02/07 04:14:59;;;;;;;0.70;0.70;;;;;;;3.43;91.37;94957.41;299395;236;63009;-55
2021/02/07 04:20:01;;;;;;;0.60;0.60;;;;;;;3.50;91.47;94960.47;299395;269;63005;-55
2021/02/07 04:25:03;;;;;;;0.60;0.60;;;;;;;3.49;91.81;94956.22;299395;223;63009;-55
2021/02/07 04:30:06;;;;;;;0.70;0.70;;;;;;;3.50;91.43;94955.91;299395;233;63005;-56
2021/02/07 04:35:08;;;;;;;0.65;0.65;;;;;;;3.43;91.66;94950.16;299395;246;63009;-55
2021/02/07 04:40:10;;;;;;;0.60;0.60;;;;;;;3.44;91.37;94948.28;299395;290;63004;-53
2021/02/07 04:45:12;;;;;;;0.60;0.60;;;;;;;3.43;91.10;94933.28;299395;280;63009;-55
2021/02/07 04:50:14;;;;;;;0.70;0.70;;;;;;;3.35;90.59;94927.50;299395;218;63009;-55
2021/02/07 04:55:15;;;;;;;0.70;0.70;;;;;;;3.44;90.27;94941.03;299395;236;63018;-56
2021/02/07 05:05:42;;;;;;;0.82;0.82;;;;;;;3.29;90.68;94944.75;299394;210;64009;-63
2021/02/07 05:10:45;;;;;;;3.17;3.00;;;;;;;3.33;90.51;94936.94;299395;268;63004;-55
2021/02/07 05:15:53;;;;;;;0.70;0.70;;;;;;;3.35;90.15;94937.44;299395;327;63009;-56
2021/02/07 05:20:59;;;;;;;0.60;0.60;;;;;;;3.40;89.88;94925.81;299395;240;63005;-55
2021/02/07 05:26:12;;;;;;;0.65;0.65;;;;;;;3.34;90.12;94931.28;299395;220;63008;-55
2021/02/07 05:31:24;;;;;;;0.60;0.60;;;;;;;3.35;90.04;94927.50;299395;244;63004;-64
2021/02/07 05:36:25;;;;;;;0.70;0.70;;;;;;;3.29;90.39;94923.31;299395;364;63009;-55
2021/02/07 05:41:26;;;;;;;0.60;0.60;;;;;;;3.24;90.77;94915.34;299395;281;63004;-55
2021/02/07 05:46:53;;;;;;;0.70;0.70;;;;;;;3.19;90.80;94909.28;299395;238;63009;-55
2021/02/07 05:51:56;;;;;;;0.70;0.70;;;;;;;3.27;90.71;94909.41;299395;252;63005;-55
2021/02/07 05:56:58;;;;;;;0.60;0.60;;;;;;;3.36;89.98;94933.66;299395;199;63009;-55
2021/02/07 06:02:07;;;;;;;0.60;0.60;;;;;;;3.33;89.83;94951.12;299395;238;63004;-55
2021/02/07 06:07:10;;;;;;;0.60;0.60;;;;;;;3.27;89.90;94933.53;299395;212;63009;-55
2021/02/07 06:12:13;;;;;;;0.70;0.70;;;;;;;3.22;90.19;94930.94;299395;247;63005;-56
2021/02/07 06:17:16;;;;;;;0.60;0.60;;;;;;;3.27;89.37;94935.41;299395;225;63004;-56
2021/02/07 06:22:18;;;;;;;0.70;0.70;;;;;;;3.27;90.14;94943.47;299395;202;63005;-56
2021/02/07 06:27:33;;;;;;;0.65;0.65;;;;;;;3.36;88.78;94939.81;299395;238;63009;-55
2021/02/07 06:32:36;;;;;;;0.60;0.60;;;;;;;3.19;90.07;94939.56;299417;214;63004;-55
2021/02/07 06:37:50;;;;;;;0.62;0.62;;;;;;;3.12;90.21;94927.66;299439;196;63009;-55
2021/02/07 06:42:51;;;;;;;0.70;0.70;;;;;;;3.02;90.66;94928.59;299395;249;63005;-56
2021/02/07 06:48:12;;;;;;;0.70;0.70;;;;;;;2.98;90.70;94933.75;299395;341;63008;-55
2021/02/07 06:53:52;;;;;;;0.70;0.70;;;;;;;3.00;90.71;94930.78;299395;228;63004;-55
2021/02/07 06:58:58;;;;;;;0.90;0.90;;;;;;;2.99;91.22;94929.19;299395;202;63009;-56
2021/02/07 07:04:17;;;;;;;0.70;0.70;;;;;;;2.95;90.90;94906.75;299395;249;63005;-55
2021/02/07 07:09:18;;;;;;;0.70;0.70;;;;;;;3.01;90.18;94905.56;299395;242;63009;-55
2021/02/07 07:14:21;;;;;;;0.60;0.60;;;;;;;2.97;90.38;94904.56;299395;196;63005;-55
2021/02/07 07:19:25;;;;;;;0.60;0.60;;;;;;;2.97;90.12;94907.25;299395;233;63009;-55
2021/02/07 07:24:26;;;;;;;0.68;0.68;;;;;;;3.11;90.05;94900.06;299395;338;63004;-56
2021/02/07 07:29:27;;;;;;;0.70;0.70;;;;;;;3.17;89.05;94914.94;299395;249;63022;-55
2021/02/07 07:34:28;;;;;;;0.70;0.70;;;;;;;3.15;89.54;94919.00;299395;229;63005;-56
2021/02/07 07:39:30;;;;;;;0.60;0.60;;;;;;;3.19;89.15;94907.41;299395;211;63009;-56
2021/02/07 07:44:35;;;;;;;0.60;0.60;;;;;;;3.09;89.21;94921.00;299417;214;63005;-55
2021/02/07 07:49:35;;;;;;;0.68;0.68;;;;;;;3.15;89.11;94922.47;299373;245;63009;-57
2021/02/07 07:54:37;;;;;;;0.60;0.60;;;;;;;3.12;89.22;94915.03;299395;221;63004;-56
2021/02/07 07:59:39;;;;;;;0.70;0.70;;;;;;;3.23;88.43;94892.31;299395;235;63009;-61
2021/02/07 08:04:42;;;;;;;0.70;0.70;;;;;;;3.09;89.34;94902.22;299395;222;63005;-55
2021/02/07 08:09:44;;;;;;;0.70;0.70;;;;;;;3.11;89.26;94902.75;299395;218;63008;-56
2021/02/07 08:14:45;;;;;;;0.70;0.70;;;;;;;3.32;88.62;94901.28;299395;199;63004;-55
2021/02/07 08:20:00;;;;;;;0.70;0.70;;;;;;;3.37;87.96;94897.72;299395;324;63009;-56
2021/02/07 08:25:04;;;;;;;;;;;;;;;3.46;88.09;94905.88;299996;983;6000;-56
2021/02/07 08:30:08;;;;;;;0.70;0.70;;;;;;;3.54;87.58;94908.66;299400;204;63004;-57
2021/02/07 08:35:10;;;;;;;0.90;0.90;;;;;;;3.57;87.66;94912.63;299395;267;63009;-55
2021/02/07 08:40:34;;;;;;;0.70;0.70;;;;;;;3.58;87.37;94900.81;299395;219;63004;-62
2021/02/07 08:45:38;;;;;;;0.70;0.70;;;;;;;3.62;88.09;94893.78;299395;235;63009;-61
2021/02/07 08:50:56;;;;;;;0.60;0.60;;;;;;;3.67;87.74;94891.00;299395;227;63005;-56
2021/02/07 08:55:57;;;;;;;0.60;0.60;;;;;;;3.76;87.27;94897.25;299395;239;63009;-56
2021/02/07 09:00:59;;;;;;;0.70;0.70;;;;;;;3.78;88.20;94894.28;299395;252;63004;-55
2021/02/07 09:06:02;;;;;;;0.70;0.70;;;;;;;3.79;88.07;94888.63;299395;234;63009;-55
2021/02/07 09:11:03;;;;;;;0.60;0.60;;;;;;;3.92;87.99;94877.06;299395;212;63005;-58
2021/02/07 09:16:05;;;;;;;0.60;0.60;;;;;;;4.02;86.43;94876.88;299395;236;63009;-59
2021/02/07 09:21:06;;;;;;;0.62;0.62;;;;;;;3.96;86.75;94879.94;299395;203;63005;-59
2021/02/07 09:26:08;;;;;;;0.60;0.60;;;;;;;3.98;86.27;94875.88;299395;212;63009;-58
2021/02/07 09:31:10;;;;;;;0.70;0.70;;;;;;;4.17;85.92;94872.25;299395;198;63004;-58
2021/02/07 09:36:27;;;;;;;0.60;0.60;;;;;;;4.43;84.76;94872.53;299395;197;63009;-58
2021/02/07 09:41:28;;;;;;;0.60;0.60;;;;;;;4.53;84.54;94878.44;299395;278;63005;-60
2021/02/07 09:46:29;;;;;;;0.60;0.60;;;;;;;4.60;84.29;94876.12;299395;242;63009;-62
2021/02/07 09:51:30;;;;;;;0.70;0.70;;;;;;;4.66;84.68;94869.53;299395;196;63005;-63
2021/02/07 09:56:31;;;;;;;0.60;0.60;;;;;;;4.77;84.53;94869.31;299395;381;63005;-62
2021/02/07 10:01:32;;;;;;;0.60;0.60;;;;;;;4.94;84.34;94872.09;299395;207;63004;-54
2021/02/07 10:06:33;;;;;;;0.60;0.60;;;;;;;5.17;83.21;94879.06;299395;196;63009;-57
2021/02/07 10:11:34;;;;;;;0.60;0.60;;;;;;;5.43;82.87;94881.09;299395;313;63005;-56
2021/02/07 10:16:37;;;;;;;0.60;0.60;;;;;;;5.63;81.59;94885.94;299395;276;63008;-58
2021/02/07 10:21:38;;;;;;;0.60;0.60;;;;;;;5.81;81.66;94897.56;299395;213;63004;-62
2021/02/07 10:26:39;;;;;;;0.60;0.60;;;;;;;6.16;80.17;94882.34;299395;273;63009;-56
2021/02/07 10:31:40;;;;;;;0.60;0.60;;;;;;;6.41;79.05;94878.13;299395;231;63004;-59
2021/02/07 10:36:41;;;;;;;0.60;0.60;;;;;;;6.53;77.46;94876.41;299395;207;63009;-58
2021/02/07 10:41:42;;;;;;;0.60;0.60;;;;;;;6.47;78.00;94882.25;299395;214;63005;-61
2021/02/07 10:46:43;;;;;;;0.60;0.60;;;;;;;6.53;77.09;94878.31;299395;220;63008;-57
2021/02/07 10:51:44;;;;;;;0.60;0.60;;;;;;;6.46;77.79;94881.47;299395;225;63010;-62
2021/02/07 10:56:46;;;;;;;0.60;0.60;;;;;;;6.49;78.77;94880.81;299394;205;64009;-55
2021/02/07 11:01:47;;;;;;;0.60;0.60;;;;;;;6.50;78.88;94887.81;299395;289;63004;-63
2021/02/07 11:06:48;;;;;;;0.60;0.60;;;;;;;6.46;79.26;94891.44;299395;223;63009;-59
2021/02/07 11:11:50;;;;;;;0.60;0.60;;;;;;;6.32;80.41;94886.19;299395;295;63005;-54
2021/02/07 11:16:51;;;;;;;0.60;0.60;;;;;;;6.28;80.38;94861.78;299394;223;64009;-58
2021/02/07 11:21:52;;;;;;;0.60;0.60;;;;;;;6.28;80.63;94869.84;299395;227;63004;-58
2021/02/07 11:26:53;;;;;;;0.68;0.68;;;;;;;6.36;81.25;94887.13;299395;206;63009;-62
2021/02/07 11:31:56;;;;;;;0.60;0.60;;;;;;;6.55;80.07;94884.97;299395;214;63005;-62
2021/02/07 11:36:58;;;;;;;0.60;0.60;;;;;;;6.46;80.39;94881.47;299395;235;63009;-59
2021/02/07 11:41:59;;;;;;;0.60;0.60;;;;;;;6.31;81.73;94873.81;299395;202;63005;-58
2021/02/07 11:47:00;;;;;;;0.60;0.60;;;;;;;6.31;82.00;94890.78;299395;219;63009;-60
2021/02/07 11:52:01;;;;;;;0.60;0.60;;;;;;;6.21;81.88;94901.06;299396;296;63000;-59
2021/02/07 11:57:03;;;;;;;2.67;1.77;;;;;;;6.03;84.19;94890.22;299396;210;63014;-58
2021/02/07 12:02:04;;;;;;;0.60;0.60;;;;;;;5.96;84.15;94889.88;299396;220;63005;-57
2021/02/07 12:07:04;;;;;;;0.60;0.60;;;;;;;5.79;85.95;94881.75;299396;251;63009;-56
2021/02/07 12:12:07;;;;;;;0.65;0.65;;;;;;;5.57;88.02;94871.03;299396;218;63005;-57
2021/02/07 12:17:08;;;;;;;0.60;0.60;;;;;;;5.59;87.79;94856.16;299396;209;63019;-59
2021/02/07 12:22:12;;;;;;;0.60;0.60;;;;;;;5.57;88.33;94871.81;299396;214;63004;-58
2021/02/07 12:27:13;;;;;;;1.17;1.17;;;;;;;5.75;87.06;94878.09;299440;277;63009;-63
2021/02/07 12:32:14;;;;;;;0.60;0.60;;;;;;;5.69;86.89;94882.00;299396;207;63005;-60
2021/02/07 12:37:16;;;;;;;0.70;0.70;;;;;;;5.64;87.16;94871.37;299397;330;63009;-60
2021/02/07 12:42:18;;;;;;;0.60;0.60;;;;;;;5.54;87.64;94879.75;299397;288;63005;-59
2021/02/07 12:47:19;;;;;;;0.70;0.70;;;;;;;5.65;86.58;94878.34;299396;240;63009;-58
2021/02/07 12:52:20;;;;;;;0.70;0.70;;;;;;;5.54;87.09;94872.47;299396;231;63004;-58
2021/02/07 12:57:22;;;;;;;0.70;0.70;;;;;;;5.48;87.15;94872.91;299396;205;63009;-60
2021/02/07 13:02:23;;;;;;;0.68;0.68;;;;;;;5.46;86.83;94864.34;299396;244;63005;-61
2021/02/07 13:07:24;;;;;;;0.70;0.70;;;;;;;5.49;86.42;94867.22;299396;197;63009;-60
2021/02/07 13:12:26;;;;;;;0.60;0.60;;;;;;;5.44;85.92;94855.78;299396;213;63004;-58
2021/02/07 13:17:28;;;;;;;0.60;0.60;;;;;;;5.33;86.02;94850.69;299396;229;63009;-60
2021/02/07 13:22:29;;;;;;;0.70;0.70;;;;;;;5.45;85.11;94844.72;299396;280;63004;-59
2021/02/07 13:27:30;;;;;;;0.70;0.70;;;;;;;5.35;84.36;94845.78;299396;216;63009;-58
2021/02/07 13:32:31;;;;;;;0.60;0.60;;;;;;;5.28;85.92;94844.62;299397;232;63005;-58
2021/02/07 13:37:32;;;;;;;0.70;0.70;;;;;;;5.26;86.47;94846.84;299397;223;63018;-58
2021/02/07 13:42:34;;;;;;;0.70;0.70;;;;;;;5.30;84.08;94832.47;299395;196;63004;-57
2021/02/07 13:47:39;;;;;;;0.60;0.60;;;;;;;5.26;83.90;94844.16;299395;213;63019;-57
2021/02/07 13:52:41;;;;;;;;;;;;;;;5.30;83.14;94840.53;299996;983;6000;-58
2021/02/07 13:57:42;;;;;;;0.70;0.70;;;;;;;5.19;84.65;94838.44;299400;212;63004;-58
2021/02/07 14:02:43;;;;;;;0.60;0.60;;;;;;;5.39;82.38;94838.69;299395;197;63022;-58
2021/02/07 14:07:44;;;;;;;0.68;0.68;;;;;;;5.31;82.00;94831.38;299395;212;63004;-58
2021/02/07 14:12:45;;;;;;;0.60;0.60;;;;;;;5.38;81.40;94836.31;299395;263;63009;-56
2021/02/07 14:17:46;;;;;;;0.60;0.60;;;;;;;5.43;79.89;94841.56;299395;268;63005;-56
2021/02/07 14:22:47;;;;;;;0.70;0.70;;;;;;;5.39;79.85;94848.66;299395;215;63008;-59
2021/02/07 14:27:48;;;;;;;0.70;0.70;;;;;;;5.37;79.95;94843.59;299395;205;63004;-58
2021/02/07 14:32:50;;;;;;;0.70;0.70;;;;;;;5.28;80.55;94836.56;299395;203;63009;-57
2021/02/07 14:37:51;;;;;;;0.65;0.65;;;;;;;5.42;79.06;94833.78;299395;228;63004;-60
2021/02/07 14:42:52;;;;;;;0.60;0.60;;;;;;;5.44;78.39;94828.91;299395;217;63009;-57
2021/02/07 14:47:53;;;;;;;0.65;0.65;;;;;;;5.36;78.55;94828.53;299395;196;63005;-57
2021/02/07 14:52:54;;;;;;;0.70;0.70;;;;;;;5.29;78.65;94830.88;299395;213;63008;-61
2021/02/07 14:57:59;;;;;;;0.60;0.60;;;;;;;5.26;79.15;94836.88;299394;224;64004;-60
2021/02/07 15:03:00;;;;;;;0.60;0.60;;;;;;;5.28;79.67;94840.06;299395;224;63009;-59
2021/02/07 15:08:01;;;;;;;0.60;0.60;;;;;;;5.10;81.09;94830.31;299395;235;63004;-55
2021/02/07 15:18:35;;;;;;;0.70;0.70;;;;;;;5.01;82.51;94837.53;299395;235;63004;-57
2021/02/07 15:23:36;;;;;;;0.60;0.60;;;;;;;5.00;81.98;94830.56;299395;315;63009;-57
2021/02/07 15:28:40;;;;;;;0.60;0.60;;;;;;;4.86;83.01;94840.59;299395;196;63004;-57
2021/02/07 15:33:41;;;;;;;0.63;0.63;;;;;;;4.80;83.07;94842.63;299417;202;63009;-56
2021/02/07 15:38:42;;;;;;;0.60;0.60;;;;;;;4.72;83.66;94841.47;299395;337;63005;-54
2021/02/07 15:43:42;;;;;;;0.70;0.70;;;;;;;4.75;83.42;94836.59;299395;205;63013;-57
2021/02/07 15:48:47;;;;;;;0.70;0.70;;;;;;;4.61;84.54;94850.84;299395;196;63000;-57
2021/02/07 15:53:48;;;;;;;0.70;0.70;;;;;;;4.57;84.83;94849.06;299417;225;63009;-57
2021/02/07 15:58:49;;;;;;;0.70;0.70;;;;;;;4.48;84.80;94846.34;299395;208;63009;-57
2021/02/07 16:03:50;;;;;;;0.70;0.70;;;;;;;4.39;86.28;94853.53;299395;228;63009;-57
2021/02/07 16:08:51;;;;;;;0.70;0.70;;;;;;;4.28;87.26;94861.00;299395;312;63005;-56
2021/02/07 16:13:53;;;;;;;0.70;0.70;;;;;;;4.31;87.87;94851.56;299395;384;63009;-56
2021/02/07 16:18:54;;;;;;;0.60;0.60;;;;;;;4.13;88.57;94849.81;299395;243;63005;-57
2021/02/07 16:23:57;;;;;;;0.60;0.60;;;;;;;4.20;88.84;94847.50;299395;235;63009;-55
2021/02/07 16:28:58;;;;;;;0.70;0.70;;;;;;;4.26;88.39;94857.03;299395;253;63004;-55
2021/02/07 16:33:59;;;;;;;0.70;0.70;;;;;;;4.01;89.36;94856.50;299395;280;63009;-56
2021/02/07 16:39:00;;;;;;;0.60;0.60;;;;;;;4.09;88.24;94867.62;299395;208;63005;-56
2021/02/07 16:44:01;;;;;;;0.60;0.60;;;;;;;4.24;87.83;94872.66;299395;209;63008;-59
2021/02/07 16:49:03;;;;;;;0.60;0.60;;;;;;;4.26;84.14;94876.63;299395;198;63004;-57
2021/02/07 16:54:04;;;;;;;0.80;0.80;;;;;;;4.07;86.57;94885.91;299395;206;63009;-56
2021/02/07 16:59:05;;;;;;;0.70;0.70;;;;;;;4.15;85.64;94885.22;299395;216;63004;-54
2021/02/07 17:04:09;;;;;;;0.60;0.60;;;;;;;4.04;85.44;94890.78;299394;202;64009;-55
2021/02/07 17:09:10;;;;;;;0.70;0.70;;;;;;;3.99;86.50;94904.31;299439;225;63005;-56
2021/02/07 17:14:10;;;;;;;0.70;0.70;;;;;;;3.84;86.85;94907.28;299395;198;63013;-59
2021/02/07 17:19:11;;;;;;;0.70;0.70;;;;;;;3.97;86.31;94911.84;299395;196;63010;-55
2021/02/07 17:24:12;;;;;;;0.70;0.70;;;;;;;3.89;87.08;94919.78;299395;270;63009;-56
2021/02/07 17:29:16;;;;;;;0.70;0.70;;;;;;;3.83;86.85;94908.38;299395;220;63011;-55
2021/02/07 17:34:18;;;;;;;0.70;0.70;;;;;;;3.83;87.08;94919.09;299417;260;63009;-56
2021/02/07 17:39:19;;;;;;;0.70;0.70;;;;;;;3.84;87.40;94931.41;299373;211;63010;-57
2021/02/07 17:44:21;;;;;;;0.70;0.70;;;;;;;3.86;86.39;94937.28;299395;228;63008;-55
2021/02/07 17:49:22;;;;;;;0.70;0.70;;;;;;;3.74;87.56;94945.03;299395;277;63004;-55
2021/02/07 17:54:22;;;;;;;0.70;0.70;;;;;;;3.77;87.32;94949.03;299395;233;63009;-56
2021/02/07 17:59:24;;;;;;;0.70;0.70;;;;;;;3.72;88.46;94947.22;299395;202;63005;-56
2021/02/07 18:04:25;;;;;;;0.70;0.70;;;;;;;3.67;88.85;94952.69;299395;217;63009;-56
2021/02/07 18:09:26;;;;;;;0.70;0.70;;;;;;;3.87;86.68;94957.66;299395;196;63000;-54
2021/02/07 18:14:27;;;;;;;0.62;0.62;;;;;;;3.87;85.71;94960.34;299395;196;63009;-61
2021/02/07 18:19:28;;;;;;;0.70;0.70;;;;;;;3.62;86.58;94964.28;299395;240;63004;-56
2021/02/07 18:24:31;;;;;;;0.60;0.60;;;;;;;3.66;86.42;94962.63;299395;233;63009;-59
2021/02/07 18:29:32;;;;;;;0.70;0.70;;;;;;;3.51;86.48;94972.78;299395;233;63005;-60
2021/02/07 18:34:33;;;;;;;0.70;0.70;;;;;;;3.40;86.53;94971.41;299395;219;63017;-61
2021/02/07 18:39:37;;;;;;;0.70;0.70;;;;;;;3.19;86.56;94981.66;299395;204;63005;-58
2021/02/07 18:44:38;;;;;;;0.70;0.70;;;;;;;3.14;87.90;94982.50;299417;267;63009;-54
2021/02/07 18:49:44;;;;;;;0.80;0.80;;;;;;;3.16;87.61;94993.75;299395;212;63004;-58
2021/02/07 18:54:45;;;;;;;0.80;0.80;;;;;;;3.17;86.28;94995.34;299395;269;63009;-64
2021/02/07 18:59:46;;;;;;;0.80;0.80;;;;;;;3.17;85.06;94998.00;299395;224;63020;-58
2021/02/07 19:04:47;;;;;;;0.70;0.70;;;;;;;2.97;86.48;95007.16;299395;237;63018;-57
2021/02/07 19:09:48;;;;;;;0.70;0.70;;;;;;;2.86;86.18;95004.91;299395;231;63005;-57
2021/02/07 19:14:51;;;;;;;0.70;0.70;;;;;;;2.95;86.04;95005.88;299395;213;63009;-57
2021/02/07 19:19:52;;;;;;;0.80;0.80;;;;;;;2.91;85.63;94999.50;299395;243;63004;-65
2021/02/07 19:24:53;;;;;;;0.70;0.70;;;;;;;2.84;85.50;95009.78;299395;316;63009;-55
2021/02/07 19:29:54;;;;;;;0.70;0.70;;;;;;;2.79;86.20;95009.84;299395;314;63005;-56
2021/02/07 19:34:54;;;;;;;0.70;0.70;;;;;;;2.79;84.90;95015.19;299395;322;63008;-56
2021/02/07 19:39:56;;;;;;;0.70;0.70;;;;;;;2.62;87.06;95011.16;299395;202;63004;-56
2021/02/07 19:44:56;;;;;;;0.80;0.80;;;;;;;2.82;85.08;95009.25;299395;285;63009;-55
2021/02/07 19:49:57;;;;;;;0.70;0.70;;;;;;;2.53;86.57;95002.16;299395;371;63004;-55
2021/02/07 19:54:59;;;;;;;0.80;0.80;;;;;;;2.74;83.91;95001.91;299395;299;63009;-55
2021/02/07 20:00:00;;;;;;;0.80;0.80;;;;;;;2.71;83.73;95002.47;299395;221;63005;-56
2021/02/07 20:05:01;;;;;;;0.70;0.70;;;;;;;2.60;83.98;95010.63;299395;202;63008;-58
2021/02/07 20:10:03;;;;;;;0.70;0.70;;;;;;;2.43;86.03;95018.34;299395;277;63011;-55
2021/02/07 20:15:06;;;;;;;0.70;0.70;;;;;;;2.40;86.00;95013.59;299395;238;63008;-55
2021/02/07 20:20:10;;;;;;;0.70;0.70;;;;;;;2.25;87.56;95008.41;299395;238;63004;-55
2021/02/07 20:25:11;;;;;;;0.70;0.70;;;;;;;2.09;88.39;95004.31;299395;273;63009;-56
2021/02/07 20:30:16;;;;;;;0.70;0.70;;;;;;;1.99;88.89;94997.22;299395;291;63005;-56
2021/02/07 20:35:17;;;;;;;0.73;0.73;;;;;;;2.17;86.01;95003.69;299417;225;63008;-55
2021/02/07 20:40:18;;;;;;;0.70;0.70;;;;;;;2.34;86.47;94998.66;299373;199;63004;-57
2021/02/07 20:45:19;;;;;;;0.70;0.70;;;;;;;2.39;85.01;95017.34;299395;221;63009;-55
2021/02/07 20:50:21;;;;;;;0.70;0.70;;;;;;;2.29;85.94;95012.09;299395;345;63005;-56
2021/02/07 20:55:23;;;;;;;0.70;0.70;;;;;;;2.26;85.59;95018.03;299395;198;63009;-55
2021/02/07 21:00:27;;;;;;;0.70;0.70;;;;;;;2.06;87.48;95021.75;299395;253;63005;-55
2021/02/07 21:05:28;;;;;;;0.70;0.70;;;;;;;1.90;88.61;95015.75;299417;236;63009;-56
2021/02/07 21:10:29;;;;;;;0.70;0.70;;;;;;;1.82;89.64;95013.69;299395;235;63004;-55
2021/02/07 21:15:30;;;;;;;0.70;0.70;;;;;;;1.74;89.87;95008.94;299395;349;63009;-56
2021/02/07 21:20:32;;;;;;;0.70;0.70;;;;;;;1.70;90.42;95004.47;299395;200;63005;-54
2021/02/07 21:25:34;;;;;;;0.70;0.70;;;;;;;1.77;90.32;95010.25;299395;224;63009;-55
2021/02/07 21:30:36;;;;;;;0.70;0.70;;;;;;;1.79;90.66;95013.44;299395;216;63005;-55
2021/02/07 21:35:38;;;;;;;0.70;0.70;;;;;;;1.82;90.22;95019.03;299395;343;63009;-54
2021/02/07 21:40:40;;;;;;;0.80;0.80;;;;;;;1.79;89.56;95019.59;299395;202;63004;-55
2021/02/07 21:45:44;;;;;;;0.77;0.77;;;;;;;1.77;89.64;95008.37;299395;236;63009;-53
2021/02/07 21:50:45;;;;;;;0.70;0.70;;;;;;;1.84;89.19;95006.19;299395;295;63005;-56
2021/02/07 21:55:46;;;;;;;0.70;0.70;;;;;;;1.85;89.58;95002.44;299395;300;63004;-56
2021/02/07 22:00:47;;;;;;;0.70;0.70;;;;;;;1.87;90.01;95000.25;299395;233;63005;-57
2021/02/07 22:05:49;;;;;;;0.70;0.70;;;;;;;1.94;89.91;94990.03;299395;308;63008;-57
2021/02/07 22:10:51;;;;;;;0.70;0.70;;;;;;;1.98;89.77;94991.06;299395;198;63004;-55
2021/02/07 22:15:52;;;;;;;0.73;0.73;;;;;;;1.96;89.26;94982.53;299395;331;63009;-56
2021/02/07 22:20:52;;;;;;;0.70;0.70;;;;;;;1.89;88.93;94983.94;299395;199;63005;-53
2021/02/07 22:25:54;;;;;;;0.70;0.70;;;;;;;1.91;88.45;94990.59;299395;216;63009;-57
2021/02/07 22:30:56;;;;;;;0.70;0.70;;;;;;;1.89;88.53;94990.09;299395;284;63005;-58
2021/02/07 22:35:56;;;;;;;0.80;0.80;;;;;;;1.84;88.76;94984.78;299395;198;63009;-56
2021/02/07 22:40:57;;;;;;;0.70;0.70;;;;;;;1.91;89.13;94979.91;299395;239;63004;-57
2021/02/07 22:45:58;;;;;;;0.73;0.73;;;;;;;1.94;88.89;94979.34;299395;265;63009;-57
2021/02/07 22:50:59;;;;;;;0.70;0.70;;;;;;;1.91;89.19;94968.41;299395;280;63005;-53
2021/02/07 22:56:00;;;;;;;0.70;0.70;;;;;;;1.98;88.81;94984.91;299395;276;63009;-57
2021/02/07 23:01:01;;;;;;;0.70;0.70;;;;;;;1.94;89.30;94979.34;299394;299;64005;-56
2021/02/07 23:06:03;;;;;;;0.70;0.70;;;;;;;1.87;89.80;94973.53;299395;197;63009;-57
2021/02/07 23:11:09;;;;;;;0.70;0.70;;;;;;;1.88;89.78;94980.47;299395;227;63004;-58
2021/02/07 23:16:09;;;;;;;0.70;0.70;;;;;;;1.90;90.17;94983.66;299395;284;63009;-55
2021/02/07 23:21:10;;;;;;;0.70;0.70;;;;;;;1.96;90.07;94987.88;299395;244;63005;-57
2021/02/07 23:26:12;;;;;;;0.70;0.70;;;;;;;1.96;89.59;94985.19;299395;294;63009;-57
2021/02/07 23:31:15;;;;;;;0.70;0.70;;;;;;;1.91;89.81;94974.56;299395;208;63005;-58
2021/02/07 23:36:15;;;;;;;0.70;0.70;;;;;;;1.90;89.94;94972.16;299395;329;63009;-59
2021/02/07 23:41:16;;;;;;;0.70;0.70;;;;;;;1.90;90.49;94966.81;299395;274;63004;-58
2021/02/07 23:46:17;;;;;;;0.70;0.70;;;;;;;1.89;90.17;94966.00;299395;284;63019;-59
2021/02/07 23:51:18;;;;;;;0.70;0.70;;;;;;;1.87;90.41;94962.81;299395;338;63005;-58
2021/02/07 23:56:19;;;;;;;0.70;0.70;;;;;;;1.89;90.35;94960.66;299394;309;64008;-58
